Time;durP1;ratioP1;P1;durP2;ratioP2;P2;SDS_P1;SDS_P2;PMS_P1;PMS_P2;Temp;Humidity;BMP_temperature;BMP_pressure;BME280_temperature;BME280_humidity;BME280_pressure;Samples;Min_cycle;Max_cycle;Signal;HPM_P1;HPM_P2
2023/10/25 00:01:31;;;;;;;13.40;4.65;;;11.10;94.90;;;;;;5016272;28;20037;-74
2023/10/25 00:03:56;;;;;;;11.23;4.90;;;11.10;94.90;;;;;;5019182;28;20935;-75
2023/10/25 00:06:23;;;;;;;10.88;5.05;;;11.10;95.00;;;;;;5018756;28;20043;-75
2023/10/25 00:08:49;;;;;;;10.55;4.80;;;11.10;95.00;;;;;;5022301;28;20025;-75
2023/10/25 00:11:14;;;;;;;10.23;5.03;;;11.10;95.00;;;;;;5012387;28;20041;-76
2023/10/25 00:13:40;;;;;;;10.15;5.35;;;11.10;95.00;;;;;;5020205;28;20401;-75
2023/10/25 00:16:05;;;;;;;10.32;4.57;;;11.10;95.10;;;;;;5013474;28;20037;-75
2023/10/25 00:18:31;;;;;;;9.70;5.15;;;11.10;95.10;;;;;;5018602;28;20041;-75
2023/10/25 00:20:57;;;;;;;10.70;4.68;;;11.10;95.20;;;;;;5019710;28;20080;-75
2023/10/25 00:23:22;;;;;;;10.45;4.15;;;11.10;95.30;;;;;;5018874;28;20098;-75
2023/10/25 00:25:49;;;;;;;14.98;5.70;;;11.10;95.30;;;;;;5018244;28;20072;-76
2023/10/25 00:28:15;;;;;;;10.90;4.90;;;11.10;95.40;;;;;;5022750;28;20042;-76
2023/10/25 00:30:41;;;;;;;12.82;5.25;;;11.10;95.40;;;;;;5017495;28;20465;-76
2023/10/25 00:33:07;;;;;;;12.80;4.22;;;11.20;95.40;;;;;;5015802;28;20095;-76
2023/10/25 00:35:32;;;;;;;13.85;4.60;;;11.20;95.40;;;;;;5016766;28;20025;-76
2023/10/25 00:37:58;;;;;;;13.43;4.70;;;11.20;95.40;;;;;;5019284;28;20030;-75
2023/10/25 00:40:24;;;;;;;11.35;4.72;;;11.20;95.40;;;;;;5017447;28;20037;-74
2023/10/25 00:42:50;;;;;;;12.30;5.20;;;11.30;95.40;;;;;;5017606;28;20164;-73
2023/10/25 00:45:16;;;;;;;10.63;4.93;;;11.20;95.40;;;;;;5020834;28;20500;-75
2023/10/25 00:47:43;;;;;;;8.32;4.85;;;11.30;95.40;;;;;;5025096;28;20118;-75
2023/10/25 00:50:10;;;;;;;12.65;5.50;;;11.30;95.40;;;;;;5019534;28;20041;-75
2023/10/25 00:52:37;;;;;;;11.27;5.00;;;11.30;95.40;;;;;;5016481;28;20048;-76
2023/10/25 00:55:03;;;;;;;10.65;4.68;;;11.30;95.40;;;;;;5017569;28;20037;-75
2023/10/25 00:57:30;;;;;;;12.60;5.25;;;11.30;95.40;;;;;;5022722;28;20034;-76
2023/10/25 00:59:56;;;;;;;12.07;4.93;;;11.40;95.30;;;;;;5022832;28;20036;-75
2023/10/25 01:02:22;;;;;;;8.25;4.15;;;11.40;95.30;;;;;;5013103;28;20033;-75
2023/10/25 01:04:48;;;;;;;9.82;4.55;;;11.40;95.30;;;;;;5020217;28;20029;-75
2023/10/25 01:07:14;;;;;;;10.30;4.95;;;11.40;95.20;;;;;;5015865;28;20103;-75
2023/10/25 01:09:39;;;;;;;9.98;4.50;;;11.40;95.20;;;;;;5019620;28;20029;-75
2023/10/25 01:12:05;;;;;;;10.35;5.20;;;11.40;95.20;;;;;;5012963;28;20122;-76
2023/10/25 01:14:31;;;;;;;13.52;4.97;;;11.40;95.20;;;;;;5017882;28;20044;-75
2023/10/25 01:16:57;;;;;;;10.23;4.60;;;11.30;95.20;;;;;;5018796;28;20519;-75
2023/10/25 01:19:22;;;;;;;10.35;4.65;;;11.40;95.20;;;;;;5019549;28;20029;-76
2023/10/25 01:21:48;;;;;;;12.65;5.57;;;11.40;95.20;;;;;;5017966;28;20044;-75
2023/10/25 01:24:14;;;;;;;9.70;5.43;;;11.40;95.00;;;;;;5017645;28;20090;-75
2023/10/25 01:26:41;;;;;;;8.43;4.82;;;11.40;95.00;;;;;;5016109;28;20422;-75
2023/10/25 01:29:06;;;;;;;11.95;5.47;;;11.30;95.00;;;;;;5016399;28;20022;-75
2023/10/25 01:31:32;;;;;;;13.70;4.95;;;11.30;95.10;;;;;;5019440;28;20079;-75
2023/10/25 01:33:59;;;;;;;12.32;4.75;;;11.30;95.10;;;;;;5020690;28;20603;-75
2023/10/25 01:36:24;;;;;;;12.98;4.65;;;11.30;95.20;;;;;;5013324;28;20136;-75
2023/10/25 01:38:50;;;;;;;13.45;4.50;;;11.30;95.10;;;;;;5015480;28;20226;-76
2023/10/25 01:41:16;;;;;;;8.93;5.00;;;11.30;95.20;;;;;;5012246;28;20029;-75
2023/10/25 01:43:44;;;;;;;12.02;4.57;;;11.30;95.20;;;;;;5015162;28;20512;-76
2023/10/25 01:46:10;;;;;;;9.70;4.05;;;11.30;95.10;;;;;;5017622;28;20053;-74
2023/10/25 01:48:37;;;;;;;12.57;4.38;;;11.30;95.10;;;;;;5016264;28;20737;-75
2023/10/25 01:51:06;;;;;;;10.57;4.22;;;11.30;95.10;;;;;;5019906;28;20038;-75
2023/10/25 01:53:33;;;;;;;15.55;4.30;;;11.20;95.10;;;;;;5018871;28;20044;-76
2023/10/25 01:55:59;;;;;;;7.53;3.83;;;11.20;95.10;;;;;;5018348;28;20099;-75
2023/10/25 01:58:25;;;;;;;9.63;3.88;;;11.20;95.10;;;;;;5015780;28;20421;-75
2023/10/25 02:00:50;;;;;;;9.88;4.85;;;11.20;95.10;;;;;;5019807;28;20385;-75
2023/10/25 02:03:16;;;;;;;11.05;4.20;;;11.20;95.00;;;;;;5013211;28;20632;-75
2023/10/25 02:05:42;;;;;;;8.95;3.90;;;11.30;95.00;;;;;;5015586;28;20530;-75
2023/10/25 02:08:07;;;;;;;7.15;3.72;;;11.30;95.00;;;;;;5016102;28;20080;-75
2023/10/25 02:10:36;;;;;;;9.98;3.65;;;11.30;95.00;;;;;;5018015;28;20410;-76
2023/10/25 02:13:01;;;;;;;10.90;3.90;;;11.30;95.00;;;;;;5017166;28;20389;-76
2023/10/25 02:15:29;;;;;;;9.73;4.13;;;11.20;95.00;;;;;;5013858;28;20034;-75
2023/10/25 02:17:54;;;;;;;9.15;4.32;;;11.20;95.00;;;;;;5014671;28;20048;-75
2023/10/25 02:20:20;;;;;;;9.85;3.95;;;11.10;95.00;;;;;;5012354;28;20810;-76
2023/10/25 02:22:45;;;;;;;9.15;4.05;;;11.10;95.10;;;;;;5016041;28;20720;-75
2023/10/25 02:25:11;;;;;;;10.02;4.65;;;11.10;95.10;;;;;;5017993;28;20041;-76
2023/10/25 02:27:37;;;;;;;10.30;4.70;;;11.10;95.20;;;;;;5014160;28;20056;-75
2023/10/25 02:30:04;;;;;;;9.45;4.45;;;11.00;95.20;;;;;;5016605;28;20040;-75
2023/10/25 02:32:30;;;;;;;8.48;4.32;;;11.00;95.30;;;;;;5014976;28;20153;-76
2023/10/25 02:34:56;;;;;;;10.63;4.40;;;11.00;95.40;;;;;;5017211;28;20083;-75
2023/10/25 02:37:21;;;;;;;8.05;3.92;;;11.00;95.40;;;;;;5018481;28;20045;-75
2023/10/25 02:39:47;;;;;;;10.18;4.28;;;11.00;95.50;;;;;;5016121;28;20037;-76
2023/10/25 02:42:13;;;;;;;9.90;3.92;;;11.00;95.50;;;;;;5015976;28;20445;-75
2023/10/25 02:44:39;;;;;;;8.85;4.47;;;11.00;95.60;;;;;;5012995;28;20037;-75
2023/10/25 02:47:06;;;;;;;10.05;4.18;;;11.00;95.60;;;;;;5019886;28;20049;-75
2023/10/25 02:49:33;;;;;;;7.43;4.20;;;11.00;95.60;;;;;;5014702;28;20517;-75
2023/10/25 02:51:58;;;;;;;8.90;4.88;;;11.00;95.60;;;;;;5019493;28;20041;-74
2023/10/25 02:54:24;;;;;;;12.10;4.95;;;10.90;95.60;;;;;;5015512;28;20022;-74
2023/10/25 02:56:50;;;;;;;9.23;4.45;;;10.90;95.60;;;;;;5016552;28;20038;-74
2023/10/25 02:59:16;;;;;;;9.25;4.13;;;10.90;95.70;;;;;;5019146;28;20025;-74
2023/10/25 03:01:41;;;;;;;9.32;4.07;;;10.90;95.70;;;;;;5012565;28;20057;-74
2023/10/25 03:04:07;;;;;;;8.70;4.00;;;10.90;95.70;;;;;;5013595;28;20108;-74
2023/10/25 03:06:33;;;;;;;8.88;4.38;;;10.80;95.70;;;;;;5013867;28;21333;-75
2023/10/25 03:08:58;;;;;;;9.43;4.22;;;10.90;95.70;;;;;;5013328;28;20041;-74
2023/10/25 03:11:24;;;;;;;9.23;3.90;;;10.90;95.80;;;;;;5014343;28;20454;-75
2023/10/25 03:13:49;;;;;;;8.90;4.22;;;10.90;95.80;;;;;;5016098;28;20969;-74
2023/10/25 03:16:15;;;;;;;9.40;4.60;;;10.90;95.80;;;;;;5014586;28;20029;-74
2023/10/25 03:18:41;;;;;;;13.02;4.35;;;10.90;95.70;;;;;;5013090;28;20113;-75
2023/10/25 03:21:06;;;;;;;9.63;4.03;;;10.90;95.70;;;;;;5018541;28;20061;-75
2023/10/25 03:23:32;;;;;;;9.65;4.45;;;10.90;95.70;;;;;;5017435;28;20034;-75
2023/10/25 03:26:06;;;;;;;9.77;4.15;;;10.90;95.70;;;;;;5012922;28;20138;-75
2023/10/25 03:28:32;;;;;;;8.27;4.32;;;10.80;95.70;;;;;;5017963;28;20095;-75
2023/10/25 03:30:58;;;;;;;9.55;4.95;;;10.80;95.70;;;;;;5016869;28;20034;-75
2023/10/25 03:33:24;;;;;;;9.63;4.70;;;10.80;95.60;;;;;;5015803;28;20627;-75
2023/10/25 03:35:53;;;;;;;9.05;4.63;;;10.80;95.60;;;;;;5017609;28;20034;-75
2023/10/25 03:38:19;;;;;;;8.55;4.60;;;10.70;95.70;;;;;;5017385;28;20136;-75
2023/10/25 03:40:45;;;;;;;9.60;4.82;;;10.70;95.80;;;;;;5018840;28;20491;-75
2023/10/25 03:43:11;;;;;;;8.43;3.90;;;10.70;95.70;;;;;;5021977;28;20057;-75
2023/10/25 03:45:36;;;;;;;7.13;4.28;;;10.70;95.80;;;;;;5016947;28;20072;-75
2023/10/25 03:48:02;;;;;;;9.93;4.57;;;10.70;95.80;;;;;;5016826;28;20168;-75
2023/10/25 03:50:27;;;;;;;9.43;4.10;;;10.70;95.80;;;;;;5017516;28;20537;-75
2023/10/25 03:52:53;;;;;;;8.15;3.90;;;10.70;95.80;;;;;;5015681;28;20132;-75
2023/10/25 03:55:19;;;;;;;8.57;4.30;;;10.70;95.90;;;;;;5012277;28;20591;-75
2023/10/25 03:57:44;;;;;;;11.52;4.03;;;10.70;95.80;;;;;;5017675;28;20053;-76
2023/10/25 04:00:11;;;;;;;8.18;3.95;;;10.70;95.80;;;;;;5015638;28;20041;-75
2023/10/25 04:02:36;;;;;;;8.00;4.25;;;10.70;95.90;;;;;;5018167;28;20033;-74
2023/10/25 04:05:02;;;;;;;8.05;3.60;;;10.70;95.80;;;;;;5016448;28;20034;-76
2023/10/25 04:07:27;;;;;;;7.82;4.10;;;10.70;95.90;;;;;;5015839;28;20053;-74
2023/10/25 04:09:53;;;;;;;6.43;3.80;;;10.70;95.80;;;;;;5014835;28;20073;-74
2023/10/25 04:12:19;;;;;;;8.90;4.28;;;10.70;95.80;;;;;;5017512;28;20437;-75
2023/10/25 04:14:45;;;;;;;9.35;4.20;;;10.70;95.80;;;;;;5016829;28;20030;-74
2023/10/25 04:17:11;;;;;;;7.72;4.28;;;10.70;95.80;;;;;;5017520;28;20045;-75
2023/10/25 04:19:37;;;;;;;12.75;4.88;;;10.70;95.80;;;;;;5018212;28;20029;-74
2023/10/25 04:22:03;;;;;;;7.85;4.28;;;10.70;95.80;;;;;;5013718;28;20034;-75
2023/10/25 04:24:29;;;;;;;9.77;3.90;;;10.70;95.80;;;;;;5011686;28;20064;-75
2023/10/25 04:26:54;;;;;;;9.80;3.88;;;10.70;95.80;;;;;;5014612;28;20042;-75
2023/10/25 04:29:20;;;;;;;9.20;3.72;;;10.80;95.80;;;;;;5019692;28;20037;-74
2023/10/25 04:31:45;;;;;;;13.05;4.78;;;10.80;95.80;;;;;;5012849;28;20043;-75
2023/10/25 04:34:11;;;;;;;8.00;4.15;;;10.80;95.80;;;;;;5018812;28;20045;-75
2023/10/25 04:36:38;;;;;;;10.02;4.13;;;10.80;95.80;;;;;;5013254;28;20486;-75
2023/10/25 04:39:04;;;;;;;9.73;4.07;;;10.80;95.80;;;;;;5010640;28;20035;-75
2023/10/25 04:41:31;;;;;;;9.13;4.13;;;10.80;95.70;;;;;;5003013;28;20030;-76
2023/10/25 04:43:56;;;;;;;12.15;4.53;;;10.90;95.60;;;;;;5021014;28;20320;-75
2023/10/25 04:46:22;;;;;;;11.55;4.30;;;10.90;95.50;;;;;;5009502;28;20525;-74
2023/10/25 04:48:47;;;;;;;10.20;3.90;;;10.90;95.30;;;;;;5008614;28;20037;-74
2023/10/25 04:51:13;;;;;;;10.75;4.28;;;11.00;95.10;;;;;;5008100;28;20752;-75
2023/10/25 04:53:40;;;;;;;9.38;3.67;;;11.00;94.80;;;;;;5010362;28;20075;-74
2023/10/25 04:56:06;;;;;;;8.88;3.50;;;11.10;94.60;;;;;;5009564;28;20038;-76
2023/10/25 04:58:32;;;;;;;11.50;4.30;;;11.10;94.50;;;;;;5015364;28;20037;-75
2023/10/25 05:00:58;;;;;;;9.68;3.83;;;11.10;94.40;;;;;;5016495;28;20044;-76
2023/10/25 05:03:24;;;;;;;9.45;4.05;;;11.20;94.30;;;;;;5008723;28;20450;-76
2023/10/25 05:05:50;;;;;;;9.38;3.70;;;11.20;94.30;;;;;;5019215;28;20045;-75
2023/10/25 05:08:16;;;;;;;10.93;3.53;;;11.20;94.20;;;;;;5017545;28;20076;-75
2023/10/25 05:10:42;;;;;;;6.68;3.75;;;11.30;94.20;;;;;;5016101;28;20030;-76
2023/10/25 05:13:07;;;;;;;10.30;3.72;;;11.20;94.20;;;;;;5017167;28;20068;-75
2023/10/25 05:15:36;;;;;;;8.98;3.45;;;11.30;94.30;;;;;;5015495;28;20041;-75
2023/10/25 05:18:02;;;;;;;8.80;3.53;;;11.30;94.30;;;;;;5014242;28;20049;-75
2023/10/25 05:20:28;;;;;;;12.02;3.97;;;11.30;94.30;;;;;;5015713;28;20046;-75
2023/10/25 05:22:56;;;;;;;11.18;3.88;;;11.30;94.30;;;;;;5020768;28;20079;-75
2023/10/25 05:25:22;;;;;;;8.45;3.60;;;11.30;94.50;;;;;;5015019;28;20386;-76
2023/10/25 05:27:48;;;;;;;9.30;3.78;;;11.20;94.50;;;;;;5017378;28;20041;-75
2023/10/25 05:30:16;;;;;;;9.95;3.88;;;11.30;94.60;;;;;;5018118;28;20059;-76
2023/10/25 05:32:46;;;;;;;9.65;4.40;;;11.20;94.70;;;;;;5018424;28;20040;-76
2023/10/25 05:35:13;;;;;;;8.90;4.28;;;11.20;94.80;;;;;;5019408;28;20108;-76
2023/10/25 05:37:39;;;;;;;9.65;3.92;;;11.20;95.00;;;;;;5016980;28;20526;-76
2023/10/25 05:40:05;;;;;;;11.18;3.90;;;11.20;95.10;;;;;;5019392;28;20044;-76
2023/10/25 05:42:42;;;;;;;9.70;3.65;;;11.20;95.30;;;;;;5014987;28;20037;-74
2023/10/25 05:45:10;;;;;;;6.90;3.70;;;11.20;95.40;;;;;;5016351;28;20479;-73
2023/10/25 05:47:35;;;;;;;9.43;3.97;;;11.10;95.60;;;;;;5015164;28;20037;-76
2023/10/25 05:50:01;;;;;;;7.32;3.80;;;11.10;95.70;;;;;;5010934;28;20123;-73
2023/10/25 05:52:27;;;;;;;10.60;4.53;;;11.10;95.80;;;;;;5011710;28;20112;-72
2023/10/25 05:54:53;;;;;;;11.27;3.97;;;11.10;95.90;;;;;;5013898;28;20573;-73
2023/10/25 05:57:19;;;;;;;8.45;3.78;;;11.10;96.10;;;;;;5008346;28;20690;-73
2023/10/25 05:59:45;;;;;;;9.52;3.75;;;11.10;96.10;;;;;;5014311;28;20033;-73
2023/10/25 06:02:22;;;;;;;13.07;4.28;;;11.10;96.20;;;;;;5016307;28;20087;-72
2023/10/25 06:04:48;;;;;;;9.63;3.65;;;11.10;96.40;;;;;;5014377;28;20034;-73
2023/10/25 06:07:14;;;;;;;12.45;3.50;;;11.10;96.50;;;;;;5016544;28;20619;-73
2023/10/25 06:09:41;;;;;;;8.32;4.22;;;11.00;96.60;;;;;;5018724;28;20359;-74
2023/10/25 06:12:07;;;;;;;8.35;3.70;;;11.10;96.60;;;;;;5017904;28;20675;-73
2023/10/25 06:14:33;;;;;;;8.13;3.70;;;11.00;96.60;;;;;;5014971;28;20022;-72
2023/10/25 06:16:59;;;;;;;7.32;3.97;;;11.00;96.70;;;;;;5015479;28;20049;-74
2023/10/25 06:19:26;;;;;;;7.15;3.65;;;11.10;96.70;;;;;;5015120;28;20780;-74
2023/10/25 06:21:51;;;;;;;7.75;4.35;;;11.00;96.80;;;;;;5013694;28;20545;-71
2023/10/25 06:24:17;;;;;;;7.50;4.32;;;11.00;96.80;;;;;;5016847;28;20128;-73
2023/10/25 06:26:43;;;;;;;9.77;4.45;;;11.00;96.90;;;;;;5012632;28;20073;-72
2023/10/25 06:29:08;;;;;;;11.45;4.35;;;11.00;96.90;;;;;;5018697;28;20029;-74
2023/10/25 06:31:34;;;;;;;8.35;4.10;;;11.00;97.00;;;;;;5017146;28;20746;-74
2023/10/25 06:34:00;;;;;;;10.18;4.43;;;11.00;97.00;;;;;;5016337;28;20057;-75
2023/10/25 06:36:26;;;;;;;8.70;3.85;;;11.00;97.10;;;;;;5016923;28;20025;-75
2023/10/25 06:38:52;;;;;;;8.93;4.75;;;11.00;97.10;;;;;;5014804;28;20030;-73
2023/10/25 06:41:22;;;;;;;8.55;4.15;;;11.00;97.10;;;;;;5010804;28;20034;-74
2023/10/25 06:43:48;;;;;;;13.13;4.60;;;10.90;97.30;;;;;;5018781;28;20021;-73
2023/10/25 06:46:14;;;;;;;8.18;4.07;;;10.90;97.30;;;;;;5010270;28;20042;-73
2023/10/25 06:48:40;;;;;;;9.55;5.03;;;10.90;97.40;;;;;;5018986;28;20052;-73
2023/10/25 06:51:07;;;;;;;9.25;4.85;;;10.90;97.40;;;;;;5011942;28;20026;-73
2023/10/25 06:53:33;;;;;;;10.02;5.18;;;10.80;97.50;;;;;;5013808;28;20069;-73
2023/10/25 06:55:59;;;;;;;8.82;4.50;;;10.80;97.50;;;;;;5014125;28;20566;-73
2023/10/25 06:58:25;;;;;;;11.05;4.75;;;10.90;97.60;;;;;;5016637;28;20038;-72
2023/10/25 07:00:57;;;;;;;12.38;5.45;;;10.90;97.70;;;;;;5011702;28;20037;-74
2023/10/25 07:03:32;;;;;;;11.85;5.18;;;10.90;97.70;;;;;;5014875;28;20112;-73
2023/10/25 07:06:00;;;;;;;8.05;4.63;;;10.80;97.60;;;;;;5014381;28;20126;-73
2023/10/25 07:08:26;;;;;;;12.32;5.82;;;10.80;97.70;;;;;;5017087;28;20057;-73
2023/10/25 07:10:51;;;;;;;8.25;4.63;;;10.90;97.80;;;;;;5017538;28;20025;-72
2023/10/25 07:13:17;;;;;;;9.95;4.32;;;10.80;97.80;;;;;;5015776;28;20041;-73
2023/10/25 07:15:43;;;;;;;11.60;4.93;;;10.80;97.90;;;;;;5016341;28;20018;-72
2023/10/25 07:18:08;;;;;;;11.30;5.10;;;10.80;97.90;;;;;;5014721;28;20061;-74
2023/10/25 07:20:34;;;;;;;9.40;4.07;;;10.80;97.90;;;;;;5015886;28;20040;-73
2023/10/25 07:23:00;;;;;;;10.77;4.45;;;10.80;98.00;;;;;;5013459;28;20034;-73
2023/10/25 07:25:26;;;;;;;10.52;4.72;;;10.80;98.00;;;;;;5011109;28;20375;-73
2023/10/25 07:27:52;;;;;;;8.73;4.78;;;10.80;97.90;;;;;;5013387;28;20052;-72
2023/10/25 07:30:18;;;;;;;7.63;4.20;;;10.80;98.00;;;;;;5013116;28;20770;-75
2023/10/25 07:32:44;;;;;;;7.78;4.15;;;10.80;98.00;;;;;;5013352;28;20033;-73
2023/10/25 07:35:10;;;;;;;8.07;3.50;;;10.80;98.00;;;;;;5011502;28;20113;-73
2023/10/25 07:37:35;;;;;;;10.30;4.07;;;10.80;98.00;;;;;;5009312;28;20041;-73
2023/10/25 07:40:05;;;;;;;7.32;3.33;;;10.80;98.10;;;;;;5012595;28;20041;-72
2023/10/25 07:42:31;;;;;;;9.85;3.95;;;10.80;98.10;;;;;;5013400;28;20033;-74
2023/10/25 07:44:57;;;;;;;7.38;3.88;;;10.80;98.10;;;;;;5014567;28;20045;-74
2023/10/25 07:47:23;;;;;;;10.40;3.97;;;10.90;98.00;;;;;;5013727;28;20034;-74
2023/10/25 07:49:49;;;;;;;7.72;3.55;;;10.90;98.00;;;;;;5010287;28;20037;-74
2023/10/25 07:52:16;;;;;;;7.45;3.55;;;10.90;98.10;;;;;;5006439;28;20049;-73
2023/10/25 07:54:42;;;;;;;7.85;4.13;;;10.80;98.00;;;;;;5012105;28;20037;-74
2023/10/25 07:57:07;;;;;;;6.75;3.50;;;10.80;98.00;;;;;;5014899;28;20052;-74
2023/10/25 07:59:33;;;;;;;8.43;4.00;;;10.90;98.00;;;;;;5004939;28;20032;-75
2023/10/25 08:01:59;;;;;;;7.22;3.60;;;10.90;98.00;;;;;;5008956;28;20087;-74
2023/10/25 08:04:24;;;;;;;9.13;3.78;;;10.90;98.00;;;;;;5010839;28;20025;-73
2023/10/25 08:06:50;;;;;;;6.32;3.35;;;10.90;97.90;;;;;;5008527;28;20033;-74
2023/10/25 08:09:16;;;;;;;8.27;3.97;;;10.90;97.80;;;;;;5004585;28;20091;-74
2023/10/25 08:11:41;;;;;;;8.68;3.78;;;11.00;97.80;;;;;;5002599;28;20549;-74
2023/10/25 08:14:08;;;;;;;7.43;3.35;;;10.90;97.80;;;;;;5010310;28;20029;-73
2023/10/25 08:16:38;;;;;;;7.95;3.85;;;11.00;97.80;;;;;;5009595;28;20547;-72
2023/10/25 08:19:04;;;;;;;8.05;3.92;;;11.00;97.80;;;;;;5010689;28;20029;-73
2023/10/25 08:21:30;;;;;;;6.22;3.30;;;11.00;97.70;;;;;;5015382;28;20034;-74
2023/10/25 08:23:56;;;;;;;7.40;3.63;;;11.00;97.70;;;;;;5020222;28;20043;-72
2023/10/25 08:26:25;;;;;;;7.25;3.40;;;11.00;97.60;;;;;;5020232;28;20500;-73
2023/10/25 08:28:51;;;;;;;6.32;3.67;;;11.10;97.60;;;;;;5027672;28;20029;-72
2023/10/25 08:31:18;;;;;;;7.13;3.72;;;11.10;97.60;;;;;;5016296;28;20159;-73
2023/10/25 08:33:44;;;;;;;7.20;3.90;;;11.10;97.50;;;;;;5022718;28;20033;-72
2023/10/25 08:36:10;;;;;;;6.40;3.30;;;11.10;97.40;;;;;;5022466;28;20025;-72
2023/10/25 08:38:36;;;;;;;7.38;4.13;;;11.10;97.40;;;;;;5022990;28;20107;-73
2023/10/25 08:41:06;;;;;;;8.48;3.70;;;11.10;97.50;;;;;;5015801;28;20064;-73
2023/10/25 08:43:33;;;;;;;7.68;4.22;;;11.10;97.60;;;;;;5020734;28;20384;-72
2023/10/25 08:46:03;;;;;;;7.38;4.45;;;11.10;97.60;;;;;;5018369;28;20116;-72
2023/10/25 08:48:29;;;;;;;8.40;3.92;;;11.10;97.50;;;;;;5018878;28;20041;-73
2023/10/25 08:50:55;;;;;;;10.25;4.57;;;11.10;97.50;;;;;;5022213;28;20052;-73
2023/10/25 08:53:25;;;;;;;8.70;4.32;;;11.10;97.60;;;;;;5022406;28;20144;-73
2023/10/25 08:55:55;;;;;;;9.52;5.47;;;11.10;97.60;;;;;;5019254;28;20045;-73
2023/10/25 08:58:23;;;;;;;8.80;5.05;;;11.10;97.60;;;;;;5013735;28;20042;-73
2023/10/25 09:00:51;;;;;;;10.15;4.97;;;11.10;97.70;;;;;;5021474;28;20083;-74
2023/10/25 09:03:32;;;;;;;9.65;6.18;;;11.10;97.70;;;;;;5016017;28;20132;-74
2023/10/25 09:06:05;;;;;;;9.02;5.63;;;11.10;97.80;;;;;;5018951;28;20068;-74
2023/10/25 09:08:32;;;;;;;10.52;6.28;;;11.20;97.80;;;;;;5018658;28;20037;-73
2023/10/25 09:11:01;;;;;;;7.85;6.07;;;11.20;97.70;;;;;;5022025;28;20680;-73
2023/10/25 09:13:27;;;;;;;10.10;7.32;;;11.20;97.70;;;;;;5020332;28;20041;-72
2023/10/25 09:16:10;;;;;;;10.43;7.00;;;11.20;97.70;;;;;;5020534;28;20144;-73
2023/10/25 09:18:36;;;;;;;10.27;7.13;;;11.20;97.70;;;;;;5016104;28;20042;-71
2023/10/25 09:21:03;;;;;;;11.73;6.32;;;11.20;97.70;;;;;;5021651;28;20072;-74
2023/10/25 09:23:29;;;;;;;10.95;7.45;;;11.20;97.70;;;;;;5020643;28;20725;-74
2023/10/25 09:25:58;;;;;;;9.68;6.68;;;11.30;97.80;;;;;;5012477;28;20067;-73
2023/10/25 09:28:27;;;;;;;9.45;6.35;;;11.30;97.80;;;;;;5018284;28;20045;-75
2023/10/25 09:31:00;;;;;;;8.45;6.20;;;11.30;97.90;;;;;;5020352;28;20729;-73
2023/10/25 09:33:30;;;;;;;8.45;6.03;;;11.30;97.80;;;;;;5015261;28;20835;-72
2023/10/25 09:35:57;;;;;;;10.48;5.85;;;11.40;97.90;;;;;;5023414;28;20046;-73
2023/10/25 09:38:24;;;;;;;9.82;6.22;;;11.40;97.70;;;;;;5017077;28;20048;-73
2023/10/25 09:40:50;;;;;;;10.07;5.90;;;11.40;97.60;;;;;;5021348;28;20087;-73
2023/10/25 09:43:18;;;;;;;8.45;5.72;;;11.30;97.60;;;;;;5018344;28;20041;-73
2023/10/25 09:45:51;;;;;;;9.23;5.90;;;11.40;97.90;;;;;;5021137;28;20060;-74
2023/10/25 09:48:19;;;;;;;8.07;5.00;;;11.50;97.90;;;;;;5021318;28;20132;-73
2023/10/25 09:50:52;;;;;;;10.30;4.95;;;11.50;97.80;;;;;;5021643;28;20053;-72
2023/10/25 09:53:23;;;;;;;9.95;6.20;;;11.50;97.40;;;;;;5023193;28;20037;-75
2023/10/25 09:55:56;;;;;;;9.18;5.57;;;11.60;97.50;;;;;;5022700;28;20042;-75
2023/10/25 09:58:23;;;;;;;7.85;4.38;;;11.60;97.40;;;;;;5019235;28;20437;-76
2023/10/25 10:00:49;;;;;;;8.85;5.25;;;11.60;97.30;;;;;;5022302;28;20068;-73
2023/10/25 10:03:44;;;;;;;10.90;5.75;;;11.60;97.20;;;;;;5018693;28;20021;-73
2023/10/25 10:06:44;;;;;;;7.18;5.30;;;11.60;97.20;;;;;;5017587;28;20048;-73
2023/10/25 10:09:23;;;;;;;7.70;5.25;;;11.70;97.20;;;;;;5020831;28;20140;-74
2023/10/25 10:11:55;;;;;;;9.00;6.22;;;11.70;97.20;;;;;;5017376;28;20042;-74
2023/10/25 10:14:37;;;;;;;9.05;5.60;;;11.80;97.30;;;;;;5021052;28;20021;-76
2023/10/25 10:17:06;;;;;;;8.18;4.80;;;11.70;97.10;;;;;;5017205;28;20095;-73
2023/10/25 10:19:32;;;;;;;7.05;5.30;;;11.90;97.30;;;;;;5020137;28;20117;-72
2023/10/25 10:22:07;;;;;;;8.88;5.53;;;12.00;97.00;;;;;;5022122;28;20030;-73
2023/10/25 10:24:40;;;;;;;7.78;4.90;;;12.10;96.90;;;;;;5020186;28;20025;-74
2023/10/25 10:27:05;;;;;;;8.23;4.47;;;12.10;96.60;;;;;;5025917;28;20054;-72
2023/10/25 10:29:31;;;;;;;6.00;4.45;;;12.10;96.30;;;;;;5022665;28;20032;-73
2023/10/25 10:31:58;;;;;;;8.50;5.00;;;12.10;96.30;;;;;;5020700;28;20048;-75
2023/10/25 10:34:43;;;;;;;8.73;5.00;;;12.20;96.30;;;;;;5019163;28;20044;-74
2023/10/25 10:37:15;;;;;;;;;;;12.10;96.10;;;;;;5019763;28;20544;-72
2023/10/25 10:39:55;;;;;;;6.90;4.78;;;12.10;96.30;;;;;;5018494;28;20047;-73
2023/10/25 10:42:29;;;;;;;5.97;4.03;;;12.00;96.40;;;;;;5018847;28;20049;-75
2023/10/25 10:44:59;;;;;;;5.90;4.18;;;11.90;96.40;;;;;;5022572;28;20111;-74
2023/10/25 10:47:41;;;;;;;7.90;5.10;;;11.90;96.60;;;;;;5015893;28;20052;-73
2023/10/25 10:50:13;;;;;;;6.57;4.28;;;11.90;96.70;;;;;;5019447;28;20638;-72
2023/10/25 10:52:39;;;;;;;5.65;4.30;;;12.00;96.80;;;;;;5021295;28;20042;-72
2023/10/25 10:55:07;;;;;;;6.68;4.55;;;12.00;96.70;;;;;;5015600;28;20068;-73
2023/10/25 10:57:34;;;;;;;7.00;5.40;;;11.90;96.70;;;;;;5018880;28;20361;-73
2023/10/25 11:00:00;;;;;;;7.25;4.10;;;12.00;96.90;;;;;;5014104;28;20102;-73
2023/10/25 11:02:26;;;;;;;6.60;4.82;;;12.00;96.90;;;;;;5020604;28;20038;-73
2023/10/25 11:04:52;;;;;;;6.57;4.47;;;12.00;96.60;;;;;;5018473;28;20037;-72
2023/10/25 11:07:18;;;;;;;6.10;4.68;;;12.10;97.00;;;;;;5017840;28;20053;-74
2023/10/25 11:09:44;;;;;;;6.80;4.45;;;12.10;96.80;;;;;;5018991;28;20041;-73
2023/10/25 11:12:10;;;;;;;6.30;4.70;;;12.20;96.60;;;;;;5020594;28;20513;-73
2023/10/25 11:14:45;;;;;;;7.55;4.00;;;12.30;96.80;;;;;;5018754;28;20390;-73
2023/10/25 11:17:12;;;;;;;7.70;4.70;;;12.20;96.30;;;;;;5022080;28;20037;-73
2023/10/25 11:19:38;;;;;;;6.93;4.35;;;12.10;96.30;;;;;;5019820;28;20036;-73
2023/10/25 11:22:04;;;;;;;5.45;3.78;;;12.30;96.70;;;;;;5018654;28;20049;-73
2023/10/25 11:24:30;;;;;;;6.22;3.97;;;12.40;96.70;;;;;;5014178;28;20423;-73
2023/10/25 11:26:56;;;;;;;6.82;4.40;;;12.50;96.50;;;;;;5015451;28;20279;-72
2023/10/25 11:29:22;;;;;;;5.40;3.80;;;12.60;96.60;;;;;;5016436;28;20478;-72
2023/10/25 11:31:50;;;;;;;8.18;4.18;;;12.60;96.50;;;;;;5015419;28;20068;-73
2023/10/25 11:34:19;;;;;;;7.30;4.50;;;12.70;96.40;;;;;;5018263;28;20437;-73
2023/10/25 11:36:47;;;;;;;8.00;4.60;;;12.60;96.00;;;;;;5010712;28;20086;-74
2023/10/25 11:39:13;;;;;;;6.20;4.30;;;12.60;95.90;;;;;;5013422;28;20100;-74
2023/10/25 11:41:39;;;;;;;7.60;4.88;;;12.60;96.10;;;;;;5017466;28;20045;-73
2023/10/25 11:44:05;;;;;;;9.32;5.05;;;12.50;96.20;;;;;;5015664;28;20423;-75
2023/10/25 11:46:44;;;;;;;7.45;4.40;;;12.50;96.30;;;;;;5019489;28;20584;-73
2023/10/25 11:49:10;;;;;;;7.88;5.05;;;12.40;96.40;;;;;;5018125;28;20030;-73
2023/10/25 11:51:36;;;;;;;6.68;4.88;;;12.40;96.60;;;;;;5014397;28;20124;-74
2023/10/25 11:54:03;;;;;;;8.05;5.32;;;12.50;96.50;;;;;;5016412;28;20413;-74
2023/10/25 11:56:28;;;;;;;8.43;5.40;;;12.50;96.60;;;;;;5023364;28;20033;-74
2023/10/25 11:58:54;;;;;;;7.25;5.45;;;12.40;96.50;;;;;;5024429;28;20037;-74
2023/10/25 12:01:20;;;;;;;7.78;5.55;;;12.40;96.40;;;;;;5025460;28;20055;-73
2023/10/25 12:03:45;;;;;;;10.27;6.93;;;12.40;96.60;;;;;;5025800;28;20699;-73
2023/10/25 12:06:12;;;;;;;9.25;5.93;;;12.50;96.70;;;;;;5018532;28;20064;-74
2023/10/25 12:08:40;;;;;;;8.88;5.97;;;12.50;96.60;;;;;;5023355;28;20151;-74
2023/10/25 12:11:07;;;;;;;9.07;6.35;;;12.50;96.60;;;;;;5023629;28;20053;-74
2023/10/25 12:13:34;;;;;;;7.65;5.75;;;12.50;96.80;;;;;;5018741;28;20048;-73
2023/10/25 12:16:00;;;;;;;10.82;7.38;;;12.60;96.60;;;;;;5018016;28;20053;-73
2023/10/25 12:18:26;;;;;;;11.52;7.28;;;12.60;96.50;;;;;;5018890;28;20582;-73
2023/10/25 12:20:51;;;;;;;9.82;7.18;;;12.50;96.30;;;;;;5015568;28;20026;-74
2023/10/25 12:23:17;;;;;;;9.65;7.60;;;12.50;96.20;;;;;;5016797;28;20026;-72
2023/10/25 12:25:43;;;;;;;11.93;9.52;;;12.40;96.20;;;;;;5018615;28;20097;-72
2023/10/25 12:28:08;;;;;;;9.68;8.68;;;12.40;96.50;;;;;;5018261;28;20067;-73
2023/10/25 12:30:34;;;;;;;10.02;8.52;;;12.30;96.40;;;;;;5018631;28;20099;-72
2023/10/25 12:32:59;;;;;;;15.07;13.45;;;12.40;96.70;;;;;;5016812;28;20534;-74
2023/10/25 12:35:25;;;;;;;20.33;18.33;;;12.40;96.80;;;;;;5017057;28;20044;-73
2023/10/25 12:37:51;;;;;;;18.17;16.38;;;12.30;96.70;;;;;;5023097;28;20509;-72
2023/10/25 12:40:16;;;;;;;19.95;17.95;;;12.30;96.90;;;;;;5023764;28;20081;-72
2023/10/25 12:42:42;;;;;;;19.00;17.10;;;12.30;96.90;;;;;;5021821;28;20633;-72